Data for 04/15/2009

Time Sea-Level Adjusted Pressure Absolute Pressure Temperature Relative Humidity Dew Point   
(mb) (inHg) (mb) (inHg) (C) (F) (%) (C) (F)
00:05 1010 29.83 840 24.81 -1.2 29.9 98 -1.5 29.4
00:10 1010 29.83 840 24.81 -1.2 29.8 98 -1.5 29.3
00:15 1010 29.83 840 24.81 -1.3 29.7 98 -1.6 29.2
00:20 1010 29.83 840 24.81 -1.3 29.6 98 -1.6 29.1
00:25 1010 29.83 840 24.81 -1.3 29.6 98 -1.7 29
00:30 1010 29.83 840 24.81 -1.4 29.6 98 -1.7 28.9
00:35 1010 29.83 839 24.78 -1.4 29.5 97 -1.8 28.8
00:40 1010 29.83 839 24.78 -1.4 29.5 97 -1.8 28.8
00:45 1010 29.83 839 24.78 -1.4 29.5 97 -1.8 28.7
00:50 1010 29.83 839 24.78 -1.4 29.5 97 -1.8 28.8
00:55 1010 29.83 839 24.78 -1.4 29.6 97 -1.8 28.8
01:00 1010 29.83 839 24.78 -1.3 29.7 98 -1.6 29.1
01:05 1010 29.83 840 24.81 -1.1 30 98 -1.5 29.4
01:10 1010 29.83 840 24.81 -1 30.2 98 -1.3 29.6
01:15 1011 29.85 840 24.81 -0.9 30.3 97 -1.3 29.7
01:20 1010 29.83 840 24.81 -1 30.2 98 -1.3 29.6
01:25 1010 29.83 840 24.81 -0.9 30.3 98 -1.3 29.7
01:30 1011 29.85 840 24.81 -1 30.2 98 -1.3 29.7
01:35 1011 29.85 840 24.81 -1 30.2 98 -1.3 29.7
01:40 1010 29.83 840 24.81 -1 30.2 98 -1.3 29.6
01:45 1010 29.83 840 24.81 -1.1 30.1 97 -1.4 29.4
01:50 1011 29.85 840 24.81 -1.3 29.7 97 -1.7 29
01:55 1010 29.83 840 24.81 -1.5 29.3 97 -1.9 28.6
02:00 1011 29.85 840 24.81 -1.7 29 97 -2 28.3
02:05 1011 29.85 840 24.81 -1.8 28.8 97 -2.1 28.1
02:10 1011 29.85 840 24.81 -1.8 28.7 98 -2.2 28.1
02:15 1010 29.83 840 24.81 -1.8 28.7 98 -2.1 28.2
02:20 1011 29.85 840 24.81 -1.9 28.6 98 -2.1 28.1
02:25 1011 29.85 840 24.81 -1.9 28.7 98 -2.2 28.1
02:30 1010 29.83 840 24.81 -1.9 28.6 98 -2.2 28
02:35 1010 29.83 840 24.81 -1.9 28.6 97 -2.3 27.9
02:40 1010 29.83 840 24.81 -1.9 28.6 97 -2.3 27.9
02:45 1010 29.83 840 24.81 -1.9 28.6 97 -2.3 27.8
02:50 1010 29.83 840 24.81 -1.9 28.6 97 -2.3 27.8
02:55 1011 29.85 840 24.81 -1.9 28.5 97 -2.3 27.8
03:00 1011 29.85 840 24.81 -1.9 28.6 98 -2.2 28
03:05 1011 29.85 840 24.81 -1.9 28.6 98 -2.2 28
03:10 1011 29.85 840 24.81 -1.9 28.6 97 -2.3 27.9
03:15 1011 29.85 840 24.81 -2 28.5 97 -2.4 27.7
03:20 1011 29.85 840 24.81 -2 28.4 98 -2.3 27.8
03:25 1011 29.85 840 24.81 -2 28.3 98 -2.4 27.8
03:30 1011 29.85 840 24.81 -2.1 28.3 98 -2.4 27.7
03:35 1011 29.85 840 24.81 -2.1 28.2 98 -2.4 27.7
03:40 1011 29.85 840 24.81 -2.1 28.2 98 -2.4 27.6
03:45 1011 29.85 840 24.81 -2.1 28.2 98 -2.4 27.7
03:50 1011 29.85 840 24.81 -2.1 28.2 98 -2.4 27.7
03:55 1011 29.85 840 24.81 -2.1 28.2 98 -2.4 27.7
04:00 1011 29.85 840 24.81 -2.1 28.2 98 -2.4 27.8
04:05 1011 29.85 840 24.81 -2.1 28.3 98 -2.3 27.8
04:10 1011 29.85 840 24.81 -2.1 28.2 98 -2.3 27.8
04:15 1011 29.85 840 24.81 -2.1 28.3 98 -2.3 27.8
04:20 1011 29.85 840 24.81 -2.1 28.3 98 -2.3 27.8
04:25 1011 29.85 840 24.81 -2.1 28.3 98 -2.3 27.9
04:30 1011 29.85 840 24.81 -2.1 28.3 98 -2.3 27.8
04:35 1011 29.85 840 24.81 -2.1 28.2 98 -2.3 27.8
04:40 1011 29.85 840 24.81 -2.1 28.2 98 -2.3 27.8
04:45 1010 29.83 840 24.81 -2.1 28.3 98 -2.4 27.7
04:50 1010 29.83 840 24.81 -2.1 28.3 98 -2.4 27.7
04:55 1011 29.85 840 24.81 -2 28.3 97 -2.4 27.7
05:00 1011 29.85 840 24.81 -2 28.5 97 -2.3 27.8
05:05 1010 29.83 840 24.81 -2 28.5 97 -2.4 27.6
05:10 1011 29.85 840 24.81 -1.9 28.6 97 -2.3 27.8
05:15 1011 29.85 840 24.81 -1.9 28.5 97 -2.3 27.9
05:20 1011 29.85 840 24.81 -2 28.4 98 -2.3 27.9
05:25 1011 29.85 840 24.81 -2 28.4 98 -2.3 27.9
05:30 1011 29.85 840 24.81 -2 28.5 98 -2.2 28
05:35 1011 29.85 840 24.81 -2 28.5 98 -2.3 27.8
05:40 1011 29.85 840 24.81 -2 28.5 97 -2.3 27.8
05:45 1011 29.85 840 24.81 -2 28.5 97 -2.4 27.7
05:50 1011 29.85 840 24.81 -1.9 28.6 98 -2.2 28
05:55 1011 29.85 840 24.81 -1.7 28.9 98 -2 28.4
06:00 1011 29.85 840 24.81 -1.6 29.1 98 -1.9 28.6
06:05 1010 29.83 840 24.81 -1.5 29.2 98 -1.8 28.8
06:10 1011 29.85 840 24.81 -1.6 29.1 98 -1.9 28.6
06:15 1011 29.85 840 24.81 -1.7 29 98 -2 28.4
06:20 1010 29.83 840 24.81 -1.7 28.9 98 -2 28.4
06:25 1011 29.85 840 24.81 -1.8 28.7 98 -2.1 28.2
06:30 1011 29.85 840 24.81 -1.9 28.6 98 -2.2 28.1
06:35 1011 29.85 840 24.81 -1.9 28.7 98 -2.1 28.2
06:40 1011 29.85 840 24.81 -1.8 28.7 98 -2.1 28.3
06:45 1011 29.85 840 24.81 -1.8 28.8 98 -2.1 28.2
06:50 1011 29.85 840 24.81 -1.8 28.8 98 -2 28.3
06:55 1011 29.85 840 24.81 -1.8 28.7 98 -2.1 28.2
07:00 1011 29.85 840 24.81 -1.8 28.7 98 -2.1 28.2
07:05 1011 29.85 840 24.81 -1.9 28.6 98 -2.2 28
07:10 1011 29.85 841 24.83 -2 28.4 97 -2.4 27.7
07:15 1011 29.85 841 24.83 -2.2 28.1 98 -2.5 27.5
07:20 1011 29.85 840 24.81 -2.2 28 98 -2.5 27.5
07:25 1011 29.85 840 24.81 -2.2 28.1 98 -2.4 27.6
07:30 1011 29.85 840 24.81 -2.1 28.2 98 -2.4 27.7
07:35 1011 29.85 840 24.81 -2.2 28 98 -2.5 27.5
07:40 1011 29.85 840 24.81 -2.2 28.1 98 -2.5 27.6
07:45 1011 29.85 840 24.81 -2.1 28.1 98 -2.5 27.6
07:50 1011 29.85 841 24.83 -2.2 28 98 -2.5 27.4
07:55 1011 29.85 841 24.83 -2.3 27.8 98 -2.6 27.3
08:00 1011 29.85 841 24.83 -2.3 27.8 98 -2.6 27.3
08:05 1012 29.88 841 24.83 -2.3 27.9 98 -2.6 27.3
08:10 1012 29.88 841 24.83 -2.3 27.9 98 -2.6 27.3
08:15 1012 29.88 841 24.83 -2.3 27.8 97 -2.7 27.2
08:20 1012 29.88 841 24.83 -2.3 27.8 97 -2.7 27.1
08:25 1012 29.88 841 24.83 -2.2 28 98 -2.6 27.4
08:30 1012 29.88 841 24.83 -2 28.4 97 -2.4 27.8
08:35 1012 29.88 841 24.83 -1.9 28.7 97 -2.3 27.9
08:40 1012 29.88 841 24.83 -1.7 28.9 97 -2.2 28.1
08:45 1012 29.88 841 24.83 -1.6 29.1 97 -2.1 28.3
08:50 1012 29.88 841 24.83 -1.5 29.2 96 -2.1 28.1
08:55 1012 29.88 841 24.83 -1.5 29.4 96 -2.1 28.3
09:00 1012 29.88 841 24.83 -1.3 29.6 95 -2.1 28.3
09:05 1012 29.88 841 24.83 -1.3 29.7 95 -1.9 28.5
09:10 1012 29.88 841 24.83 -1.2 29.9 95 -1.8 28.8
09:15 1012 29.88 841 24.83 -1.1 30 95 -1.8 28.7
09:20 1012 29.88 841 24.83 -1 30.1 95 -1.7 28.9
09:25 1012 29.88 842 24.86 -1.1 30.1 95 -1.8 28.7
09:30 1012 29.88 841 24.83 -0.9 30.5 94 -1.7 28.9
09:35 1012 29.88 842 24.86 -0.7 30.8 93 -1.6 29
09:40 1012 29.88 842 24.86 -0.6 31 93 -1.5 29.3
09:45 1012 29.88 842 24.86 -0.4 31.2 94 -1.4 29.5
09:50 1012 29.88 842 24.86 -0.3 31.4 92 -1.5 29.3
09:55 1012 29.88 842 24.86 -0.3 31.5 93 -1.3 29.7
10:00 1013 29.91 842 24.86 -0.1 31.8 91 -1.5 29.3
10:05 1013 29.91 842 24.86 -0.3 31.5 91 -1.5 29.3
10:10 1013 29.91 842 24.86 -0.3 31.4 91 -1.6 29.1
10:15 1013 29.91 842 24.86 -0.7 30.8 91 -1.9 28.6
10:20 1013 29.91 842 24.86 -0.8 30.6 90 -2.2 28.1
10:25 1013 29.91 842 24.86 -0.9 30.4 92 -2.1 28.3
10:30 1013 29.91 842 24.86 -1 30.2 92 -2.1 28.1
10:35 1013 29.91 842 24.86 -1.1 30.1 92 -2.2 28
10:40 1013 29.91 842 24.86 -0.9 30.4 90 -2.4 27.7
10:45 1013 29.91 842 24.86 -1.1 30 90 -2.5 27.5
10:50 1013 29.91 842 24.86 -1.1 30 92 -2.3 27.8
10:55 1013 29.91 842 24.86 -1 30.2 91 -2.2 28
11:00 1013 29.91 842 24.86 -0.6 30.9 91 -1.9 28.6
11:05 1013 29.91 842 24.86 -0.2 31.6 88 -1.9 28.5
11:10 1013 29.91 842 24.86 -0.5 31.1 90 -1.9 28.5
11:15 1013 29.91 842 24.86 -0.5 31 90 -2 28.4
11:20 1013 29.91 843 24.89 -0.9 30.4 90 -2.3 27.8
11:25 1013 29.91 843 24.89 -1.3 29.7 92 -2.3 27.8
11:30 1013 29.91 843 24.89 -1.3 29.6 92 -2.5 27.6
11:35 1014 29.94 843 24.89 -1.3 29.7 92 -2.5 27.6
11:40 1014 29.94 843 24.89 -1.2 29.9 91 -2.5 27.5
11:45 1014 29.94 843 24.89 -0.9 30.4 91 -2.2 28
11:50 1014 29.94 843 24.89 -0.7 30.8 90 -2.1 28.2
11:55 1014 29.94 843 24.89 -0.8 30.5 90 -2.2 28
12:00 1014 29.94 843 24.89 -0.8 30.5 89 -2.5 27.6
12:05 1014 29.94 843 24.89 -0.8 30.6 89 -2.4 27.7
12:10 1014 29.94 843 24.89 -0.6 31 88 -2.4 27.8
12:15 1013 29.91 843 24.89 -0.5 31.1 88 -2.3 27.9
12:20 1013 29.91 843 24.89 -0.6 31 88 -2.3 27.9
12:25 1014 29.94 843 24.89 -0.7 30.7 88 -2.5 27.5
12:30 1014 29.94 843 24.89 -0.8 30.6 89 -2.4 27.6
12:35 1014 29.94 843 24.89 -0.7 30.7 90 -2.2 28
12:40 1014 29.94 843 24.89 -1.1 29.9 92 -2.3 27.9
12:45 1014 29.94 843 24.89 -1.1 30 93 -2.1 28.2
12:50 1014 29.94 843 24.89 -0.9 30.3 91 -2.2 28.1
12:55 1014 29.94 843 24.89 -0.9 30.5 92 -1.9 28.5
13:00 1014 29.94 843 24.89 -0.6 30.9 90 -2 28.4
13:05 1014 29.94 843 24.89 -0.3 31.5 90 -1.7 28.9
13:10 1014 29.94 843 24.89 0 32 86 -2 28.3
13:15 1014 29.94 843 24.89 0.4 32.8 85 -1.8 28.7
13:20 1014 29.94 843 24.89 0.8 33.4 84 -1.7 29
13:25 1014 29.94 843 24.89 0.5 32.9 85 -1.7 29
13:30 1014 29.94 843 24.89 0.8 33.4 86 -1.2 29.8
13:35 1014 29.94 843 24.89 1.1 34 83 -1.4 29.5
13:40 1014 29.94 843 24.89 1.3 34.3 82 -1.5 29.3
13:45 1014 29.94 843 24.89 1.2 34.1 80 -1.8 28.7
13:50 1014 29.94 843 24.89 1.1 33.9 81 -1.8 28.8
13:55 1014 29.94 843 24.89 0.8 33.4 82 -2 28.5
14:00 1014 29.94 843 24.89 0.7 33.2 81 -2.2 28.1
14:05 1014 29.94 843 24.89 1.2 34.2 81 -1.7 28.9
14:10 1014 29.94 843 24.89 1.2 34.2 83 -1.3 29.6
14:15 1014 29.94 843 24.89 1.6 34.8 83 -1.1 30
14:20 1014 29.94 843 24.89 1.7 35.1 83 -0.9 30.3
14:25 1014 29.94 843 24.89 1.7 35.1 81 -1.2 29.9
14:30 1014 29.94 843 24.89 1.7 35.1 82 -1.1 30
14:35 1014 29.94 843 24.89 1.5 34.7 82 -1.3 29.7
14:40 1014 29.94 843 24.89 1.1 33.9 82 -1.7 28.9
14:45 1014 29.94 843 24.89 0.8 33.4 84 -1.6 29.2
14:50 1014 29.94 843 24.89 1 33.8 82 -1.8 28.8
14:55 1014 29.94 843 24.89 1.2 34.1 81 -1.7 28.9
15:00 1014 29.94 843 24.89 1.2 34.1 83 -1.5 29.4
15:05 1014 29.94 843 24.89 1.4 34.5 83 -1.2 29.9
15:10 1014 29.94 843 24.89 1.3 34.4 83 -1.2 29.9
15:15 1014 29.94 843 24.89 1.2 34.2 83 -1.3 29.6
15:20 1014 29.94 843 24.89 1.1 34 84 -1.3 29.7
15:25 1014 29.94 843 24.89 1.4 34.4 83 -1.2 29.9
15:30 1014 29.94 843 24.89 1.7 35 81 -1.2 29.9
15:35 1014 29.94 843 24.89 2.1 35.7 79 -1.2 29.8
15:40 1014 29.94 843 24.89 2 35.6 81 -1 30.2
15:45 1014 29.94 843 24.89 2.2 35.9 81 -0.8 30.6
15:50 1014 29.94 843 24.89 2.1 35.7 77 -1.5 29.3
15:55 1014 29.94 843 24.89 1.7 35 80 -1.4 29.4
16:00 1014 29.94 843 24.89 1.5 34.7 78 -1.9 28.5
16:05 1014 29.94 843 24.89 1.6 35 76 -2.1 28.2
16:10 1014 29.94 843 24.89 1.4 34.6 76 -2.3 27.9
16:15 1014 29.94 843 24.89 1.3 34.3 80 -1.8 28.7
16:20 1014 29.94 843 24.89 1.4 34.5 78 -2.1 28.2
16:25 1014 29.94 844 24.92 1.1 33.9 80 -2 28.5
16:30 1014 29.94 844 24.92 1 33.8 81 -2 28.4
16:35 1015 29.97 844 24.92 0.8 33.5 82 -2 28.4
16:40 1015 29.97 844 24.92 0.8 33.4 82 -2 28.4
16:45 1015 29.97 844 24.92 0.9 33.7 81 -2 28.5
16:50 1015 29.97 844 24.92 0.6 33.2 81 -2.2 28
16:55 1015 29.97 844 24.92 0.7 33.2 80 -2.4 27.6
17:00 1015 29.97 844 24.92 0.7 33.3 80 -2.4 27.6
17:05 1015 29.97 844 24.92 0.5 32.8 82 -2.3 27.9
17:10 1015 29.97 844 24.92 0.3 32.6 83 -2.2 28
17:15 1015 29.97 844 24.92 0.6 33 81 -2.4 27.7
17:20 1015 29.97 844 24.92 0.7 33.3 81 -2.2 28.1
17:25 1015 29.97 844 24.92 0.8 33.5 81 -2.1 28.2
17:30 1015 29.97 844 24.92 0.6 33.1 80 -2.4 27.7
17:35 1015 29.97 844 24.92 0.7 33.2 81 -2.3 27.9
17:40 1015 29.97 844 24.92 0.5 32.9 81 -2.3 27.8
17:45 1015 29.97 844 24.92 0.6 33.1 83 -2 28.4
17:50 1015 29.97 844 24.92 0.4 32.7 85 -1.9 28.6
17:55 1015 29.97 845 24.95 0.3 32.5 85 -2 28.4
18:00 1015 29.97 845 24.95 0.3 32.6 83 -2.2 28
18:05 1015 29.97 845 24.95 0.6 33.1 80 -2.4 27.7
18:10 1016 30 845 24.95 0.4 32.7 82 -2.3 27.9
18:15 1016 30 845 24.95 0.5 32.8 80 -2.6 27.3
18:20 1016 30 845 24.95 0.5 32.9 79 -2.7 27.2
18:25 1016 30 845 24.95 0.4 32.7 79 -2.8 27
18:30 1016 30 845 24.95 0.4 32.6 81 -2.6 27.3
18:35 1016 30 845 24.95 0.3 32.5 82 -2.5 27.5
18:40 1016 30 845 24.95 0.2 32.3 82 -2.6 27.3
18:45 1016 30 845 24.95 0.1 32.2 82 -2.6 27.3
18:50 1016 30 845 24.95 0.1 32.1 82 -2.7 27.2
18:55 1016 30 845 24.95 0 32.1 82 -2.6 27.3
19:00 1016 30 845 24.95 0 32 84 -2.4 27.6
19:05 1016 30 845 24.95 -0 31.9 84 -2.4 27.8
19:10 1016 30 845 24.95 -0.1 31.8 86 -2.3 27.9
19:15 1016 30 845 24.95 -0.1 31.8 83 -2.7 27.2
19:20 1016 30 845 24.95 -0 31.9 82 -2.7 27.1
19:25 1016 30 845 24.95 -0 32 82 -2.8 27
19:30 1016 30 845 24.95 -0 31.9 83 -2.7 27.2
19:35 1016 30 845 24.95 -0.1 31.9 82 -2.8 26.9
19:40 1016 30 845 24.95 -0.1 31.8 82 -2.8 26.9
19:45 1016 30 845 24.95 -0.1 31.8 82 -2.8 27
19:50 1016 30 845 24.95 -0.1 31.7 81 -3.1 26.5
19:55 1016 30 845 24.95 -0.2 31.7 82 -2.9 26.8
20:00 1016 30 845 24.95 -0.2 31.6 81 -3.1 26.5
20:05 1016 30 846 24.98 -0.2 31.6 82 -2.9 26.8
20:10 1017 30.03 846 24.98 -0.3 31.5 83 -2.8 26.9
20:15 1017 30.03 846 24.98 -0.3 31.4 84 -2.7 27.1
20:20 1017 30.03 846 24.98 -0.4 31.3 84 -2.8 27
20:25 1017 30.03 846 24.98 -0.5 31.1 85 -2.7 27.2
20:30 1017 30.03 846 24.98 -0.6 31 86 -2.7 27.1
20:35 1017 30.03 846 24.98 -0.6 30.9 86 -2.7 27.1
20:40 1017 30.03 846 24.98 -0.6 30.9 86 -2.7 27.1
20:45 1017 30.03 846 24.98 -0.7 30.8 86 -2.7 27.1
20:50 1017 30.03 846 24.98 -0.7 30.8 86 -2.7 27.2
20:55 1017 30.03 846 24.98 -0.7 30.7 86 -2.7 27.1
21:00 1017 30.03 847 25.01 -0.7 30.7 86 -2.8 27
21:05 1017 30.03 847 25.01 -0.8 30.6 86 -2.8 26.9
21:10 1017 30.03 847 25.01 -0.8 30.6 85 -2.9 26.7
21:15 1018 30.06 847 25.01 -0.8 30.6 86 -2.9 26.8
21:20 1018 30.06 847 25.01 -0.8 30.5 87 -2.8 27
21:25 1018 30.06 847 25.01 -0.8 30.5 87 -2.8 26.9
21:30 1018 30.06 847 25.01 -0.9 30.5 86 -2.9 26.7
21:35 1018 30.06 847 25.01 -0.9 30.4 86 -2.9 26.8
21:40 1018 30.06 847 25.01 -0.9 30.4 86 -3 26.6
21:45 1018 30.06 847 25.01 -0.9 30.4 85 -3.1 26.4
21:50 1018 30.06 847 25.01 -0.9 30.4 84 -3.2 26.2
21:55 1018 30.06 847 25.01 -0.9 30.3 85 -3.2 26.2
22:00 1018 30.06 847 25.01 -0.9 30.3 84 -3.3 26
22:05 1018 30.06 847 25.01 -0.9 30.3 84 -3.4 26
22:10 1018 30.06 847 25.01 -0.9 30.3 83 -3.4 25.9
22:15 1018 30.06 847 25.01 -0.9 30.3 84 -3.4 26
22:20 1018 30.06 847 25.01 -0.9 30.3 83 -3.4 25.8
22:25 1018 30.06 847 25.01 -0.9 30.3 84 -3.3 26
22:30 1018 30.06 847 25.01 -1 30.2 84 -3.4 25.9
22:35 1018 30.06 847 25.01 -1 30.2 83 -3.4 25.8
22:40 1018 30.06 847 25.01 -1 30.2 84 -3.4 26
22:45 1018 30.06 847 25.01 -1 30.2 84 -3.3 26
22:50 1018 30.06 847 25.01 -1 30.2 83 -3.5 25.8
22:55 1018 30.06 847 25.01 -1 30.2 83 -3.5 25.8
23:00 1018 30.06 847 25.01 -1 30.2 83 -3.6 25.5
23:05 1018 30.06 847 25.01 -1 30.2 84 -3.4 25.9
23:10 1018 30.06 847 25.01 -1.1 30.1 84 -3.4 25.8
23:15 1018 30.06 847 25.01 -1.1 30.1 84 -3.5 25.8
23:20 1018 30.06 847 25.01 -1.1 30 84 -3.5 25.7
23:25 1018 30.06 847 25.01 -1.1 30 83 -3.6 25.5
23:30 1018 30.06 847 25.01 -1.1 30.1 83 -3.6 25.5
23:35 1018 30.06 847 25.01 -1.1 30 84 -3.5 25.7
23:40 1018 30.06 848 25.04 -1.1 29.9 84 -3.5 25.6
23:45 1018 30.06 848 25.04 -1.2 29.9 83 -3.6 25.5
23:50 1018 30.06 848 25.04 -1.2 29.9 84 -3.6 25.5
23:55 1018 30.06 848 25.04 -1.2 29.9 84 -3.6 25.6
24:00 1018 30.06 848 25.04 -1.2 29.9 83 -3.7 25.3